Time;durP1;ratioP1;P1;durP2;ratioP2;P2;SDS_P1;SDS_P2;PMS_P1;PMS_P2;Temp;Humidity;BMP_temperature;BMP_pressure;BME280_temperature;BME280_humidity;BME280_pressure;Samples;Min_cycle;Max_cycle;Signal;HPM_P1;HPM_P2
2023/07/19 00:00:53;;;;;;;6.82;1.70;;;18.90;99.90;;;;;;4179910;28;20163;-83
2023/07/19 00:02:53;;;;;;;8.80;1.95;;;19.10;99.90;;;;;;4147224;28;20177;-82
2023/07/19 00:04:54;;;;;;;4.43;1.60;;;19.20;99.90;;;;;;4163596;28;20172;-83
2023/07/19 00:06:55;;;;;;;6.63;1.65;;;19.20;99.90;;;;;;4163682;28;20176;-83
2023/07/19 00:08:56;;;;;;;6.82;1.60;;;19.20;99.90;;;;;;4163475;28;20214;-83
2023/07/19 00:10:57;;;;;;;13.48;1.98;;;19.20;99.90;;;;;;4163623;28;20223;-83
2023/07/19 00:12:58;;;;;;;5.82;1.58;;;19.20;99.90;;;;;;4163489;28;20199;-83
2023/07/19 00:14:59;;;;;;;9.30;2.10;;;19.20;99.90;;;;;;4147148;28;20208;-83
2023/07/19 00:16:59;;;;;;;6.38;1.63;;;19.30;99.90;;;;;;4163421;28;20179;-83
2023/07/19 00:19:00;;;;;;;8.25;1.83;;;19.40;99.90;;;;;;4149812;28;20251;-83
2023/07/19 00:21:01;;;;;;;5.10;1.63;;;19.60;99.90;;;;;;4166591;28;20230;-83
2023/07/19 00:23:02;;;;;;;7.60;2.50;;;19.70;99.90;;;;;;4166620;28;20590;-83
2023/07/19 00:25:02;;;;;;;9.93;1.70;;;19.60;99.90;;;;;;4166770;28;20156;-83
2023/07/19 00:27:03;;;;;;;10.48;1.25;;;19.60;99.90;;;;;;4150110;28;20220;-83
2023/07/19 00:29:04;;;;;;;4.07;1.30;;;19.40;99.90;;;;;;4149812;28;20184;-83
2023/07/19 00:31:05;;;;;;;6.80;1.70;;;19.30;99.90;;;;;;4166220;28;20180;-83
2023/07/19 00:33:05;;;;;;;5.78;1.33;;;19.30;99.90;;;;;;4149975;28;20641;-82
2023/07/19 00:35:08;;;;;;;7.20;1.35;;;19.40;99.90;;;;;;4150269;28;20169;-83
2023/07/19 00:37:08;;;;;;;5.82;1.70;;;19.40;99.90;;;;;;4167683;28;20187;-83
2023/07/19 00:39:09;;;;;;;6.43;1.73;;;19.20;99.90;;;;;;4166435;28;20204;-83
2023/07/19 00:41:10;;;;;;;4.63;1.52;;;19.00;99.90;;;;;;4166184;28;20172;-83
2023/07/19 00:43:11;;;;;;;3.70;1.50;;;19.10;99.90;;;;;;4166143;28;20176;-83
2023/07/19 00:45:11;;;;;;;7.20;1.60;;;19.10;99.90;;;;;;4166267;28;20248;-83
2023/07/19 00:47:12;;;;;;;9.23;1.48;;;18.90;99.90;;;;;;4166018;28;20606;-83
2023/07/19 00:49:13;;;;;;;8.57;1.45;;;18.90;99.90;;;;;;4166072;28;20192;-83
2023/07/19 00:51:15;;;;;;;8.43;1.85;;;18.90;99.90;;;;;;4182630;28;20175;-83
2023/07/19 00:53:18;;;;;;;6.20;1.63;;;18.90;99.90;;;;;;4149804;28;20271;-83
2023/07/19 00:55:20;;;;;;;7.82;1.60;;;18.90;99.90;;;;;;4166088;28;20564;-83
2023/07/19 00:57:22;;;;;;;5.50;1.38;;;18.90;99.90;;;;;;4166157;28;20621;-83
2023/07/19 00:59:24;;;;;;;6.53;1.60;;;19.10;99.90;;;;;;4165747;28;20192;-83
2023/07/19 01:01:25;;;;;;;11.40;1.63;;;19.10;99.90;;;;;;4149561;28;20540;-83
2023/07/19 01:03:26;;;;;;;7.70;1.50;;;19.20;99.90;;;;;;4165758;28;20181;-83
2023/07/19 01:05:27;;;;;;;5.13;1.77;;;19.20;99.90;;;;;;4166876;28;20164;-83
2023/07/19 01:07:29;;;;;;;5.55;1.23;;;19.20;99.90;;;;;;4149568;28;20184;-83
2023/07/19 01:09:29;;;;;;;5.55;1.33;;;19.30;99.90;;;;;;4167276;28;20181;-83
2023/07/19 01:11:31;;;;;;;9.52;1.98;;;19.40;99.90;;;;;;4149562;28;20172;-83
2023/07/19 01:13:32;;;;;;;11.40;1.95;;;19.40;99.90;;;;;;4165429;28;20223;-83
2023/07/19 01:15:33;;;;;;;4.45;1.60;;;19.50;99.90;;;;;;4165457;28;20169;-83
2023/07/19 01:17:34;;;;;;;6.63;1.60;;;19.50;99.90;;;;;;4149174;28;20177;-83
2023/07/19 01:19:34;;;;;;;9.00;1.70;;;19.50;99.90;;;;;;4165668;28;20196;-83
2023/07/19 01:21:35;;;;;;;6.97;1.60;;;19.50;99.90;;;;;;4149253;28;20641;-83
2023/07/19 01:23:36;;;;;;;6.38;1.92;;;19.50;99.90;;;;;;4149287;28;20219;-83
2023/07/19 01:25:37;;;;;;;10.13;1.27;;;19.40;99.90;;;;;;4149131;28;20320;-83
2023/07/19 01:27:37;;;;;;;5.50;1.73;;;19.30;99.90;;;;;;4149061;28;20180;-84
2023/07/19 01:29:38;;;;;;;6.45;1.38;;;19.40;99.90;;;;;;4148043;28;20185;-82
2023/07/19 01:31:39;;;;;;;8.00;1.40;;;19.50;99.90;;;;;;4165705;28;20184;-83
2023/07/19 01:33:40;;;;;;;7.03;1.40;;;19.60;99.90;;;;;;4165611;28;20238;-83
2023/07/19 01:35:41;;;;;;;5.40;1.63;;;19.60;99.90;;;;;;4165440;28;20168;-83
2023/07/19 01:37:41;;;;;;;6.45;1.50;;;19.70;99.90;;;;;;4165238;28;20172;-83
2023/07/19 01:39:43;;;;;;;9.43;2.00;;;19.70;99.90;;;;;;4148963;28;20669;-83
2023/07/19 01:41:43;;;;;;;5.10;1.52;;;19.70;99.90;;;;;;4149041;28;20259;-83
2023/07/19 01:43:44;;;;;;;5.35;1.60;;;19.60;99.90;;;;;;4165250;28;20572;-83
2023/07/19 01:45:45;;;;;;;7.43;1.90;;;19.60;99.90;;;;;;4148852;28;20576;-83
2023/07/19 01:47:47;;;;;;;5.32;1.30;;;19.50;99.90;;;;;;4148952;28;20263;-83
2023/07/19 01:49:48;;;;;;;8.70;1.70;;;19.50;99.90;;;;;;4148630;28;20185;-83
2023/07/19 01:51:48;;;;;;;5.97;1.52;;;19.40;99.90;;;;;;4166336;28;20172;-83
2023/07/19 01:53:49;;;;;;;4.72;1.42;;;19.50;99.90;;;;;;4148745;28;20566;-83
2023/07/19 01:55:50;;;;;;;10.63;1.92;;;19.30;99.90;;;;;;4164972;28;20233;-83
2023/07/19 01:57:50;;;;;;;7.90;1.67;;;19.20;99.90;;;;;;4181398;28;20178;-83
2023/07/19 01:59:51;;;;;;;7.63;1.80;;;19.20;99.90;;;;;;4164902;28;20287;-83
2023/07/19 02:01:53;;;;;;;5.18;1.63;;;19.10;99.90;;;;;;4165094;28;20198;-83
2023/07/19 02:03:53;;;;;;;6.80;1.65;;;19.10;99.90;;;;;;4165175;28;20191;-83
2023/07/19 02:05:58;;;;;;;11.55;2.30;;;19.20;99.90;;;;;;4148367;28;20208;-83
2023/07/19 02:07:59;;;;;;;8.10;1.73;;;19.20;99.90;;;;;;4165022;28;20176;-83
2023/07/19 02:10:00;;;;;;;7.22;1.65;;;19.10;99.90;;;;;;4148539;28;20201;-83
2023/07/19 02:12:01;;;;;;;7.75;2.20;;;19.10;99.90;;;;;;4164883;28;20254;-83
2023/07/19 02:14:02;;;;;;;8.25;1.67;;;18.90;99.90;;;;;;4148406;28;20199;-83
2023/07/19 02:16:03;;;;;;;8.15;2.00;;;19.00;99.90;;;;;;4148165;28;20173;-83
2023/07/19 02:18:03;;;;;;;8.63;1.73;;;18.90;99.90;;;;;;4148263;28;20307;-83
2023/07/19 02:20:05;;;;;;;13.07;2.28;;;19.00;99.90;;;;;;4165941;28;20165;-83
2023/07/19 02:22:06;;;;;;;8.25;1.80;;;19.10;99.90;;;;;;4148354;28;20577;-83
2023/07/19 02:24:09;;;;;;;7.72;1.67;;;19.20;99.90;;;;;;4164812;28;20233;-83
2023/07/19 02:26:10;;;;;;;5.60;1.77;;;19.20;99.90;;;;;;4148222;28;20201;-83
2023/07/19 02:28:11;;;;;;;7.40;1.90;;;19.30;99.90;;;;;;4148585;28;20204;-83
2023/07/19 02:30:12;;;;;;;5.07;1.50;;;19.40;99.90;;;;;;4164655;28;20203;-83
2023/07/19 02:32:13;;;;;;;7.03;1.55;;;19.30;99.90;;;;;;4165670;28;20258;-83
2023/07/19 02:34:18;;;;;;;8.60;1.90;;;19.40;99.90;;;;;;4148000;28;20164;-83
2023/07/19 02:36:19;;;;;;;5.05;1.50;;;19.40;99.90;;;;;;4164475;28;20275;-83
2023/07/19 02:38:26;;;;;;;9.20;1.73;;;19.40;99.90;;;;;;4165412;28;20728;-83
2023/07/19 02:40:27;;;;;;;5.57;1.40;;;19.40;99.90;;;;;;4147893;28;20187;-83
2023/07/19 02:42:27;;;;;;;4.82;1.73;;;19.30;99.90;;;;;;4164093;28;20600;-83
2023/07/19 02:44:28;;;;;;;10.98;1.70;;;19.30;99.90;;;;;;4164041;28;20645;-83
2023/07/19 02:46:29;;;;;;;8.65;1.92;;;19.20;99.90;;;;;;4164161;28;20164;-83
2023/07/19 02:48:30;;;;;;;5.35;1.77;;;19.20;99.90;;;;;;4147795;28;20208;-83
2023/07/19 02:50:31;;;;;;;6.15;1.48;;;19.10;99.90;;;;;;4147862;28;20227;-83
2023/07/19 02:52:32;;;;;;;6.68;1.70;;;19.10;99.90;;;;;;4164056;28;20644;-83
2023/07/19 02:54:33;;;;;;;8.07;2.10;;;19.00;99.90;;;;;;4165405;28;20541;-83
2023/07/19 02:56:33;;;;;;;6.50;1.83;;;19.10;99.90;;;;;;4164229;28;20234;-83
2023/07/19 02:58:34;;;;;;;9.35;2.30;;;19.10;99.90;;;;;;4147690;28;20184;-83
2023/07/19 03:00:40;;;;;;;5.32;1.80;;;19.10;99.90;;;;;;4164109;28;20226;-83
2023/07/19 03:02:41;;;;;;;5.53;1.92;;;19.10;99.90;;;;;;4147651;28;20169;-83
2023/07/19 03:04:41;;;;;;;7.50;2.05;;;19.00;99.90;;;;;;4164066;28;20263;-83
2023/07/19 03:06:42;;;;;;;5.97;2.13;;;18.90;99.90;;;;;;4164116;28;20168;-83
2023/07/19 03:08:43;;;;;;;8.07;2.03;;;18.80;99.90;;;;;;4163867;28;20203;-83
2023/07/19 03:10:43;;;;;;;6.68;1.77;;;19.00;99.90;;;;;;4180303;28;20167;-82
2023/07/19 03:12:44;;;;;;;6.22;2.17;;;19.20;99.90;;;;;;4147562;28;20263;-83
2023/07/19 03:14:45;;;;;;;5.00;2.03;;;19.20;99.90;;;;;;4163671;28;20182;-83
2023/07/19 03:16:45;;;;;;;8.40;2.28;;;19.30;99.90;;;;;;4163834;28;20176;-83
2023/07/19 03:18:47;;;;;;;8.15;2.17;;;19.30;99.90;;;;;;4163848;28;20592;-83
2023/07/19 03:20:54;;;;;;;13.88;2.83;;;19.20;99.90;;;;;;4147574;28;20180;-83
2023/07/19 03:22:55;;;;;;;7.03;2.13;;;19.00;99.90;;;;;;4147641;28;20173;-82
2023/07/19 03:24:56;;;;;;;11.73;3.10;;;19.20;99.90;;;;;;4163999;28;20649;-83
2023/07/19 03:26:57;;;;;;;10.50;2.72;;;19.30;99.90;;;;;;4147477;28;20181;-82
2023/07/19 03:28:57;;;;;;;14.02;2.97;;;19.50;99.90;;;;;;4163721;28;20265;-83
2023/07/19 03:30:58;;;;;;;9.52;2.55;;;19.60;99.90;;;;;;4163845;28;20168;-83
2023/07/19 03:32:59;;;;;;;6.43;2.83;;;19.70;99.90;;;;;;4147178;28;20243;-83
2023/07/19 03:35:00;;;;;;;6.97;2.20;;;19.80;99.90;;;;;;4163910;28;20657;-83
2023/07/19 03:37:00;;;;;;;13.75;2.92;;;19.60;99.90;;;;;;4165097;28;20172;-83
2023/07/19 03:39:03;;;;;;;11.27;2.60;;;19.40;99.90;;;;;;4147397;28;20181;-83
2023/07/19 03:41:08;;;;;;;9.07;2.47;;;19.30;99.90;;;;;;4163808;28;20176;-83
2023/07/19 03:43:09;;;;;;;14.52;2.63;;;19.20;99.90;;;;;;4163672;28;20180;-83
2023/07/19 03:45:11;;;;;;;10.32;2.40;;;19.30;99.90;;;;;;4163540;28;20234;-83
2023/07/19 03:47:12;;;;;;;10.63;2.53;;;19.30;99.90;;;;;;4163770;28;20607;-83
2023/07/19 03:49:13;;;;;;;10.05;2.60;;;19.20;99.90;;;;;;4147257;28;20200;-83
2023/07/19 03:51:14;;;;;;;11.05;2.22;;;19.20;99.90;;;;;;4147371;28;20169;-83
2023/07/19 03:53:15;;;;;;;7.75;2.72;;;19.20;99.90;;;;;;4165168;28;20223;-83
2023/07/19 03:55:15;;;;;;;7.72;2.40;;;19.20;99.90;;;;;;4150416;28;20170;-83
2023/07/19 03:57:16;;;;;;;10.85;2.72;;;19.30;99.90;;;;;;4183524;28;20186;-83
2023/07/19 03:59:17;;;;;;;11.43;2.30;;;19.30;99.90;;;;;;4166716;28;20190;-83
2023/07/19 04:01:18;;;;;;;10.57;2.30;;;19.30;99.90;;;;;;4166835;28;20176;-81
2023/07/19 04:03:18;;;;;;;9.40;2.50;;;19.20;99.90;;;;;;4150395;28;20267;-83
2023/07/19 04:05:19;;;;;;;5.95;2.20;;;19.20;99.90;;;;;;4150353;28;20204;-83
2023/07/19 04:07:21;;;;;;;8.55;2.63;;;19.20;99.90;;;;;;4166785;28;20255;-83
2023/07/19 04:09:21;;;;;;;9.85;2.35;;;19.10;99.90;;;;;;4166626;28;20196;-83
2023/07/19 04:11:23;;;;;;;11.88;2.55;;;19.00;99.90;;;;;;4166703;28;20157;-83
2023/07/19 04:13:26;;;;;;;10.90;2.92;;;19.10;99.90;;;;;;4166386;28;20211;-83
2023/07/19 04:15:27;;;;;;;10.00;2.42;;;19.00;99.90;;;;;;4150406;28;20169;-83
2023/07/19 04:17:27;;;;;;;8.95;2.47;;;18.90;99.90;;;;;;4150144;28;20271;-83
2023/07/19 04:19:29;;;;;;;12.15;2.75;;;18.90;99.90;;;;;;4166527;28;20231;-83
2023/07/19 04:21:29;;;;;;;6.05;2.40;;;18.80;99.90;;;;;;4166663;28;20180;-83
2023/07/19 04:23:30;;;;;;;9.13;2.42;;;18.80;99.90;;;;;;4166559;28;20202;-83
2023/07/19 04:25:33;;;;;;;8.85;2.60;;;18.80;99.90;;;;;;4166355;28;20173;-83
2023/07/19 04:27:34;;;;;;;11.07;2.60;;;18.70;99.90;;;;;;4150103;28;20216;-83
2023/07/19 04:29:34;;;;;;;6.80;2.17;;;18.60;99.90;;;;;;4166044;28;20203;-83
2023/07/19 04:31:36;;;;;;;8.30;2.45;;;18.60;99.90;;;;;;4150105;28;20188;-83
2023/07/19 04:33:37;;;;;;;6.72;2.70;;;18.60;99.90;;;;;;4167548;28;20221;-83
2023/07/19 04:35:38;;;;;;;9.52;2.45;;;18.50;99.90;;;;;;4149961;28;20227;-83
2023/07/19 04:37:40;;;;;;;7.78;2.40;;;18.50;99.90;;;;;;4166168;28;20595;-83
2023/07/19 04:39:41;;;;;;;5.68;2.33;;;18.60;99.90;;;;;;4149720;28;20546;-83
2023/07/19 04:41:42;;;;;;;11.30;2.90;;;18.60;99.90;;;;;;4149587;28;20623;-82
2023/07/19 04:43:43;;;;;;;8.02;2.33;;;18.70;99.90;;;;;;4149637;28;20554;-83
2023/07/19 04:45:44;;;;;;;8.98;2.63;;;18.80;99.90;;;;;;4166113;28;20176;-83
2023/07/19 04:47:46;;;;;;;4.22;2.13;;;18.90;99.90;;;;;;4166239;28;20222;-83
2023/07/19 04:49:47;;;;;;;10.23;2.60;;;18.80;99.90;;;;;;4166017;28;20561;-83
2023/07/19 04:51:48;;;;;;;10.75;2.78;;;18.90;99.90;;;;;;4182531;28;20217;-82
2023/07/19 04:53:49;;;;;;;8.75;2.85;;;18.90;99.90;;;;;;4149855;28;20363;-83
2023/07/19 04:55:51;;;;;;;10.82;2.65;;;18.90;99.90;;;;;;4165982;28;20186;-82
2023/07/19 04:57:52;;;;;;;8.25;2.95;;;19.00;99.90;;;;;;4167133;28;20176;-83
2023/07/19 04:59:53;;;;;;;10.10;2.70;;;19.00;99.90;;;;;;4166005;28;20263;-83
2023/07/19 05:01:54;;;;;;;17.88;2.80;;;19.10;99.90;;;;;;4166018;28;20581;-83
2023/07/19 05:03:55;;;;;;;12.40;2.40;;;19.10;99.90;;;;;;4148603;28;20204;-83
2023/07/19 05:05:56;;;;;;;8.68;2.50;;;19.30;99.90;;;;;;4149317;28;20204;-83
2023/07/19 05:07:59;;;;;;;6.72;2.65;;;19.30;99.90;;;;;;4149534;28;20252;-83
2023/07/19 05:10:00;;;;;;;10.95;2.22;;;19.30;99.90;;;;;;4165751;28;20172;-83
2023/07/19 05:12:01;;;;;;;6.68;2.35;;;19.40;99.90;;;;;;4165712;28;20183;-83
2023/07/19 05:14:02;;;;;;;7.65;2.40;;;19.30;99.90;;;;;;4165654;28;20615;-83
2023/07/19 05:16:03;;;;;;;10.35;2.70;;;19.20;99.90;;;;;;4166870;28;20179;-83
2023/07/19 05:18:05;;;;;;;11.93;2.30;;;19.10;99.90;;;;;;4149200;28;20239;-84
2023/07/19 05:20:07;;;;;;;7.88;2.10;;;19.00;99.90;;;;;;4165761;28;20644;-84
2023/07/19 05:22:08;;;;;;;7.43;2.13;;;19.10;99.90;;;;;;4149074;28;20211;-83
2023/07/19 05:24:09;;;;;;;9.30;2.22;;;19.20;99.90;;;;;;4165710;28;20168;-83
2023/07/19 05:26:09;;;;;;;6.57;2.25;;;19.20;99.90;;;;;;4165411;28;20230;-80
2023/07/19 05:28:10;;;;;;;7.20;2.00;;;19.30;99.90;;;;;;4149010;28;20165;-82
2023/07/19 05:30:11;;;;;;;9.43;2.38;;;19.40;99.90;;;;;;4165418;28;20232;-84
2023/07/19 05:32:12;;;;;;;9.32;2.35;;;19.50;99.90;;;;;;4165670;28;20160;-84
2023/07/19 05:34:12;;;;;;;8.00;2.00;;;19.70;99.90;;;;;;4149159;28;20641;-85
2023/07/19 05:36:13;;;;;;;14.20;2.28;;;20.00;99.90;;;;;;4149033;28;20173;-84
2023/07/19 05:38:15;;;;;;;9.27;1.80;;;20.00;99.90;;;;;;4148854;28;20629;-84
2023/07/19 05:40:17;;;;;;;8.80;1.90;;;20.20;99.90;;;;;;4149192;28;20216;-84
2023/07/19 05:42:17;;;;;;;9.13;2.25;;;20.40;99.90;;;;;;4149048;28;20272;-84
2023/07/19 05:44:18;;;;;;;10.10;1.98;;;20.50;99.90;;;;;;4165396;28;20168;-84
2023/07/19 05:46:19;;;;;;;6.47;1.70;;;20.60;99.90;;;;;;4165232;28;20649;-83
2023/07/19 05:48:19;;;;;;;8.45;1.83;;;20.60;99.90;;;;;;4148869;28;20235;-84
2023/07/19 05:50:20;;;;;;;9.02;1.90;;;20.80;99.90;;;;;;4165076;28;20188;-84
2023/07/19 05:52:21;;;;;;;5.43;1.63;;;20.70;99.90;;;;;;4148720;28;20204;-84
2023/07/19 05:54:21;;;;;;;5.80;1.80;;;20.70;99.90;;;;;;4165068;28;20704;-84
2023/07/19 05:56:22;;;;;;;5.18;1.80;;;20.60;99.90;;;;;;4148745;28;20176;-84
2023/07/19 05:58:23;;;;;;;8.07;2.20;;;20.60;99.90;;;;;;4181433;28;20260;-84
2023/07/19 06:00:24;;;;;;;5.85;1.65;;;20.70;99.90;;;;;;4148537;28;20172;-84
2023/07/19 06:02:25;;;;;;;7.22;1.50;;;20.50;99.90;;;;;;4148717;28;20208;-84
2023/07/19 06:04:26;;;;;;;9.23;1.90;;;20.30;99.90;;;;;;4164830;28;20207;-84
2023/07/19 06:06:27;;;;;;;10.45;2.30;;;20.10;99.90;;;;;;4166011;28;20176;-85
2023/07/19 06:08:27;;;;;;;7.38;1.63;;;20.30;99.90;;;;;;4148500;28;20621;-84
2023/07/19 06:10:29;;;;;;;10.73;1.80;;;20.40;99.90;;;;;;4164883;28;20176;-84
2023/07/19 06:12:29;;;;;;;6.07;1.65;;;20.40;99.90;;;;;;4148506;28;20197;-84
2023/07/19 06:14:30;;;;;;;8.60;1.80;;;20.20;99.90;;;;;;4181196;28;20202;-84
2023/07/19 06:16:31;;;;;;;7.55;1.60;;;20.40;99.90;;;;;;4164562;28;20195;-84
2023/07/19 06:18:31;;;;;;;12.75;1.80;;;20.60;99.90;;;;;;4165791;28;20703;-84
2023/07/19 06:20:32;;;;;;;6.72;1.65;;;20.40;99.90;;;;;;4164497;28;20580;-84
2023/07/19 06:22:33;;;;;;;7.60;1.52;;;20.50;99.90;;;;;;4164822;28;20242;-84
2023/07/19 06:24:34;;;;;;;5.68;1.55;;;20.40;99.90;;;;;;4166008;28;20183;-84
2023/07/19 06:26:34;;;;;;;8.55;1.70;;;20.30;99.90;;;;;;4165618;28;20177;-84
2023/07/19 06:28:35;;;;;;;5.43;1.20;;;20.50;99.90;;;;;;4165596;28;20184;-84
2023/07/19 06:30:36;;;;;;;9.73;1.88;;;20.80;99.90;;;;;;4164520;28;20203;-84
2023/07/19 06:32:37;;;;;;;5.07;1.75;;;20.80;99.90;;;;;;4164284;28;20192;-85
2023/07/19 06:34:38;;;;;;;7.60;1.50;;;21.00;99.90;;;;;;4164462;28;20216;-84
2023/07/19 06:36:38;;;;;;;3.83;1.60;;;21.10;99.90;;;;;;4165739;28;20655;-84
2023/07/19 06:38:39;;;;;;;6.35;1.33;;;21.20;99.90;;;;;;4165746;28;20656;-85
2023/07/19 06:40:40;;;;;;;9.93;1.70;;;21.30;99.90;;;;;;4164379;28;20175;-84
2023/07/19 06:42:42;;;;;;;7.82;1.50;;;21.60;99.90;;;;;;4164380;28;20172;-85
2023/07/19 06:44:43;;;;;;;6.55;1.50;;;21.60;99.90;;;;;;4164432;28;20172;-85
2023/07/19 06:46:44;;;;;;;7.70;1.65;;;21.50;99.90;;;;;;4164340;28;20172;-84
2023/07/19 06:48:44;;;;;;;7.32;1.38;;;21.70;99.90;;;;;;4180839;28;20557;-84
2023/07/19 06:50:46;;;;;;;7.00;1.27;;;21.90;99.90;;;;;;4164476;28;20180;-84
2023/07/19 06:52:46;;;;;;;11.38;1.65;;;21.90;99.90;;;;;;4164499;28;20211;-84
2023/07/19 06:54:48;;;;;;;8.75;1.50;;;21.90;99.90;;;;;;4147993;28;20197;-84
2023/07/19 06:56:49;;;;;;;9.02;1.52;;;22.30;99.90;;;;;;4147864;28;20189;-85
2023/07/19 06:58:50;;;;;;;5.53;1.48;;;22.30;99.90;;;;;;4147541;28;20665;-85
2023/07/19 07:00:54;;;;;;;8.07;1.70;;;22.30;99.90;;;;;;4165434;28;20227;-84
2023/07/19 07:02:55;;;;;;;6.25;1.30;;;22.20;99.90;;;;;;4180492;28;20167;-85
2023/07/19 07:04:56;;;;;;;5.80;1.20;;;22.10;99.90;;;;;;4165277;28;20515;-85
2023/07/19 07:06:56;;;;;;;6.25;1.30;;;22.10;99.90;;;;;;4147952;28;20181;-85
2023/07/19 07:08:57;;;;;;;5.90;1.33;;;22.60;99.90;;;;;;4163761;28;20192;-84
2023/07/19 07:11:00;;;;;;;11.57;1.58;;;22.70;99.90;;;;;;4147605;28;20605;-85
2023/07/19 07:13:00;;;;;;;10.27;1.40;;;22.80;99.90;;;;;;4163834;28;20208;-84
2023/07/19 07:15:02;;;;;;;5.47;1.08;;;22.90;99.90;;;;;;4163724;28;20207;-84
2023/07/19 07:17:03;;;;;;;4.60;1.30;;;23.00;99.90;;;;;;4163588;28;20221;-85
2023/07/19 07:19:04;;;;;;;5.65;1.10;;;23.30;99.90;;;;;;4180469;28;20195;-85
2023/07/19 07:21:05;;;;;;;6.22;1.40;;;24.00;99.90;;;;;;4163982;28;20168;-85
2023/07/19 07:23:06;;;;;;;7.45;1.42;;;24.20;99.90;;;;;;4147666;28;20199;-85
2023/07/19 07:25:06;;;;;;;4.55;1.30;;;25.10;99.90;;;;;;4147676;28;20208;-85
2023/07/19 07:27:08;;;;;;;9.75;1.38;;;25.50;99.90;;;;;;4163229;28;20195;-84
2023/07/19 07:29:08;;;;;;;4.82;1.40;;;25.60;99.90;;;;;;4163799;28;20188;-85
2023/07/19 07:31:11;;;;;;;5.65;1.38;;;25.50;99.90;;;;;;4147430;28;20184;-86
2023/07/19 07:33:12;;;;;;;7.90;1.38;;;25.10;99.90;;;;;;4147410;28;20200;-85
2023/07/19 07:35:12;;;;;;;3.55;1.10;;;24.30;99.90;;;;;;4163715;28;20207;-85
2023/07/19 07:37:13;;;;;;;3.90;1.30;;;24.00;99.90;;;;;;4163721;28;20168;-84
2023/07/19 07:39:14;;;;;;;8.70;1.55;;;24.40;99.90;;;;;;4147435;28;20200;-85
2023/07/19 07:41:15;;;;;;;7.93;1.58;;;25.30;99.90;;;;;;4147269;28;20169;-85
2023/07/19 07:43:15;;;;;;;8.90;1.52;;;26.10;99.90;;;;;;4164937;28;20620;-84
2023/07/19 07:45:17;;;;;;;7.10;1.23;;;26.80;99.90;;;;;;4147358;28;20169;-85
2023/07/19 07:47:18;;;;;;;8.50;1.20;;;27.90;99.90;;;;;;4164006;28;20196;-85
2023/07/19 07:49:18;;;;;;;7.80;1.60;;;28.50;99.90;;;;;;4147463;28;20192;-85
2023/07/19 07:51:19;;;;;;;7.63;1.38;;;29.60;99.90;;;;;;4164870;28;20172;-85
2023/07/19 07:53:21;;;;;;;5.07;1.33;;;30.10;99.90;;;;;;4163625;28;20270;-85
2023/07/19 07:55:22;;;;;;;7.70;1.23;;;29.90;99.90;;;;;;4163686;28;20174;-86
2023/07/19 07:57:23;;;;;;;5.97;1.30;;;29.30;99.90;;;;;;4147333;28;20177;-86
2023/07/19 07:59:24;;;;;;;5.47;1.20;;;28.60;99.90;;;;;;4163468;28;20203;-86
2023/07/19 08:01:24;;;;;;;7.70;1.50;;;28.50;99.90;;;;;;4163795;28;20211;-86
2023/07/19 08:03:25;;;;;;;6.25;1.30;;;28.60;99.90;;;;;;4163371;28;20262;-86
2023/07/19 08:05:27;;;;;;;6.75;1.40;;;29.90;99.90;;;;;;4163859;28;20192;-86
2023/07/19 08:07:27;;;;;;;6.22;1.10;;;30.50;99.90;;;;;;4147299;28;20203;-86
2023/07/19 08:09:28;;;;;;;5.68;1.40;;;30.50;99.90;;;;;;4163318;28;20196;-84
2023/07/19 08:11:29;;;;;;;6.90;1.50;;;30.60;99.90;;;;;;4164009;28;20231;-85
2023/07/19 08:13:29;;;;;;;5.65;1.50;;;30.30;99.90;;;;;;4179767;28;20200;-85
2023/07/19 08:15:30;;;;;;;6.05;1.55;;;30.10;99.90;;;;;;4163581;28;20264;-85
2023/07/19 08:17:31;;;;;;;4.78;1.25;;;29.90;99.90;;;;;;4147240;28;20220;-85
2023/07/19 08:19:31;;;;;;;6.57;1.30;;;29.30;99.90;;;;;;4163329;28;20200;-85
2023/07/19 08:21:32;;;;;;;5.88;1.40;;;29.50;99.90;;;;;;4163643;28;20222;-85
2023/07/19 08:23:33;;;;;;;7.13;1.92;;;29.50;99.90;;;;;;4163656;28;20238;-85
2023/07/19 08:25:34;;;;;;;3.50;1.23;;;29.20;99.90;;;;;;4147066;28;20177;-86
2023/07/19 08:27:35;;;;;;;11.43;1.52;;;29.40;99.90;;;;;;4164218;28;20184;-85
2023/07/19 08:29:36;;;;;;;4.68;1.30;;;29.00;99.90;;;;;;4146853;28;20685;-86
2023/07/19 08:31:36;;;;;;;5.32;1.10;;;28.80;99.90;;;;;;4163544;28;20172;-85
2023/07/19 08:33:37;;;;;;;6.63;1.10;;;29.20;99.90;;;;;;4146797;28;20201;-85
2023/07/19 08:35:38;;;;;;;6.10;1.08;;;29.00;99.90;;;;;;4163447;28;20287;-85
2023/07/19 08:37:38;;;;;;;4.50;1.00;;;29.00;99.90;;;;;;4163274;28;20616;-86
2023/07/19 08:39:39;;;;;;;8.50;1.20;;;29.00;99.90;;;;;;4148964;28;20613;-85
2023/07/19 08:41:40;;;;;;;4.57;1.10;;;29.00;99.90;;;;;;4182662;28;20255;-86
2023/07/19 08:43:41;;;;;;;5.80;1.40;;;28.60;99.90;;;;;;4166194;28;20188;-85
2023/07/19 08:45:42;;;;;;;6.45;1.20;;;29.10;99.90;;;;;;4166273;28;20664;-86
2023/07/19 08:47:46;;;;;;;3.22;1.00;;;29.20;99.90;;;;;;4166122;28;20196;-86
2023/07/19 08:49:48;;;;;;;5.00;1.05;;;29.60;99.90;;;;;;4149818;28;20189;-86
2023/07/19 08:51:49;;;;;;;2.95;0.80;;;30.10;99.90;;;;;;4149810;28;20601;-86
2023/07/19 08:53:50;;;;;;;3.10;1.00;;;30.80;99.90;;;;;;4167413;28;20215;-86
2023/07/19 08:55:51;;;;;;;3.92;1.10;;;30.70;99.90;;;;;;4165965;28;20181;-86
2023/07/19 08:57:52;;;;;;;7.03;1.10;;;30.90;99.90;;;;;;4167425;28;20660;-86
2023/07/19 08:59:53;;;;;;;5.78;1.00;;;31.50;99.90;;;;;;4165896;28;20199;-86
2023/07/19 09:01:54;;;;;;;3.60;0.93;;;31.60;99.90;;;;;;4166106;28;20725;-86
2023/07/19 09:03:55;;;;;;;3.33;1.00;;;31.00;99.90;;;;;;4167175;28;20176;-85
2023/07/19 09:05:55;;;;;;;8.23;1.05;;;30.40;99.90;;;;;;4149746;28;20169;-85
2023/07/19 09:08:02;;;;;;;3.92;1.00;;;29.10;99.90;;;;;;4166013;28;20176;-85
2023/07/19 09:10:07;;;;;;;2.63;0.68;;;28.70;99.90;;;;;;4165976;28;20215;-85
2023/07/19 09:12:08;;;;;;;5.57;1.10;;;28.30;99.90;;;;;;4167207;28;20259;-85
2023/07/19 09:14:09;;;;;;;7.28;0.80;;;27.70;99.90;;;;;;4165946;28;20183;-86
2023/07/19 09:16:10;;;;;;;3.42;0.55;;;27.80;99.90;;;;;;4182476;28;20171;-85
2023/07/19 09:18:10;;;;;;;5.35;1.00;;;27.60;99.90;;;;;;4149395;28;20179;-85
2023/07/19 09:20:12;;;;;;;5.25;1.10;;;27.40;99.90;;;;;;4165931;28;20179;-86
2023/07/19 09:22:15;;;;;;;2.58;0.60;;;26.90;99.90;;;;;;4167113;28;20168;-84
2023/07/19 09:24:15;;;;;;;2.80;0.77;;;26.60;99.90;;;;;;4165857;28;20176;-85
2023/07/19 09:26:16;;;;;;;2.25;0.60;;;26.40;99.90;;;;;;4165630;28;20164;-85
2023/07/19 09:28:21;;;;;;;3.42;0.65;;;26.80;99.90;;;;;;4149194;28;20280;-84
2023/07/19 09:30:22;;;;;;;4.07;0.70;;;26.40;99.90;;;;;;4165780;28;20203;-85
2023/07/19 09:32:24;;;;;;;6.03;0.73;;;26.30;99.90;;;;;;4166718;28;20160;-84
2023/07/19 09:34:37;;;;;;;5.90;0.63;;;26.80;99.90;;;;;;4149212;28;20220;-85
2023/07/19 09:36:40;;;;;;;4.70;0.80;;;27.20;99.90;;;;;;4165307;28;20176;-85
2023/07/19 09:38:41;;;;;;;2.58;0.85;;;27.30;99.90;;;;;;4149092;28;20554;-85
2023/07/19 09:40:41;;;;;;;7.18;1.02;;;27.00;99.90;;;;;;4165463;28;20188;-85
2023/07/19 09:42:42;;;;;;;3.20;0.68;;;26.30;99.90;;;;;;4165405;28;20267;-85
2023/07/19 09:44:45;;;;;;;3.17;0.70;;;25.90;99.90;;;;;;4165155;28;20168;-86
2023/07/19 09:46:46;;;;;;;3.10;0.50;;;26.10;99.90;;;;;;4165076;28;20184;-85
2023/07/19 09:48:46;;;;;;;3.10;0.30;;;26.40;99.90;;;;;;4166431;28;20192;-85
2023/07/19 09:50:51;;;;;;;1.17;0.22;;;27.10;99.90;;;;;;4165683;28;20243;-85
2023/07/19 09:52:53;;;;;;;3.17;0.30;;;27.50;99.90;;;;;;4166432;28;20196;-85
2023/07/19 09:54:54;;;;;;;2.63;0.30;;;27.80;99.90;;;;;;4166694;28;20171;-85
2023/07/19 09:56:54;;;;;;;0.90;0.50;;;27.70;99.90;;;;;;4148826;28;20534;-85
2023/07/19 09:58:56;;;;;;;1.58;0.40;;;27.50;99.90;;;;;;4164894;28;20195;-85
2023/07/19 10:00:58;;;;;;;2.78;0.40;;;27.00;99.90;;;;;;4164936;28;20180;-85
2023/07/19 10:02:59;;;;;;;1.13;0.38;;;26.40;99.90;;;;;;4166175;28;20203;-84
2023/07/19 10:05:09;;;;;;;2.72;0.60;;;25.90;99.90;;;;;;4166445;28;20195;-84
2023/07/19 10:07:21;;;;;;;1.45;0.40;;;25.30;99.90;;;;;;4164978;28;20176;-84
2023/07/19 10:09:21;;;;;;;3.20;0.40;;;25.30;99.90;;;;;;4164835;28;20232;-84
2023/07/19 10:11:23;;;;;;;0.90;0.30;;;25.20;99.90;;;;;;4148375;28;20239;-85
2023/07/19 10:13:59;;;;;;;1.67;0.43;;;25.80;99.90;;;;;;4165795;28;20238;-85
2023/07/19 10:16:00;;;;;;;1.63;0.70;;;26.70;99.90;;;;;;4152268;28;20230;-85
2023/07/19 10:18:02;;;;;;;0.93;0.38;;;27.10;99.90;;;;;;4148309;28;20185;-85
2023/07/19 10:20:14;;;;;;;2.10;0.60;;;27.70;99.90;;;;;;4164661;28;20610;-85
2023/07/19 10:22:15;;;;;;;3.15;0.50;;;27.20;99.90;;;;;;4166040;28;20172;-85
2023/07/19 10:24:17;;;;;;;1.38;0.50;;;26.90;99.90;;;;;;4165906;28;20184;-85
2023/07/19 10:26:29;;;;;;;2.47;0.90;;;26.60;99.90;;;;;;4164671;28;20199;-84
2023/07/19 10:28:30;;;;;;;2.40;0.70;;;25.90;99.90;;;;;;4164418;28;20235;-85
2023/07/19 10:30:51;;;;;;;4.18;0.60;;;25.70;99.90;;;;;;4148370;28;20173;-84